Aérodrome :







RETROUVEZ-NOUS SUR...

 
LOGIN :

S'inscrire | Disclaimer

   EN    FR    IT 

 









Légende :    VFR   VFR Marginal   IFR   IFR Intensif   IFR Très Intensif
Visi : 
Plafond : 
>= 8 km
>= 3000ft
5 à 8 km
1000 à 3000 ft
1500m à 5 km
500 à 1000 ft
800 à 1500m
200 à 500 ft
< 800m
< 200 ft
Symboles :   Orages  Brouillard  Fortes neiges  Fortes précipitations  Vent > 20 kt






- Altitude de l'aérodrome : 16 ft
- Code IATA : FDF


TFFF - Aime Cesaire

DERNIER METAR :
  • 291400Z AUTO 12015KT 9999 FEW031 BKN072 29/21 Q1019 TEMPO 4500 SHRA BKN025TCU

METARs EXPIRÉS :
  • 291330Z AUTO 12012KT 9999 FEW026 BKN072 28/22 Q1019 TEMPO 4500 SHRA BKN025TCU
  • 291300Z AUTO 11011KT 9999 FEW045 BKN070 27/21 Q1018 TEMPO 4500 SHRA BKN025TCU
  • 291230Z AUTO 13007KT 100V170 9999 FEW029 BKN068 26/20 Q1018 TEMPO 4500 SHRA BKN025TCU
  • 291200Z AUTO 11009KT CAVOK 26/21 Q1018 TEMPO 4500 SHRA BKN025TCU
  • 291130Z AUTO 12006KT 9999 SCT026 BKN047 OVC056 24/22 Q1017 TEMPO 4500 SHRA BKN025TCU
  • 291100Z AUTO 23001KT 9999 FEW027 OVC068 24/21 Q1017 TEMPO 4500 SHRA BKN025TCU

TAF TAF TFFF
Valide du 29 à 12h jusqu'au 01 à 12h UTC


291000Z 2912/0112 10006KT 9999 SCT025 SCT050
PROB30
TEMPO 2912/2920 4500 SHRA BKN025TCU



MET'MAP, la Météo Aéronautique d'un coup d'oeil ! - Copyright ORBIFLY Décembre 2007 - Disclaimer

ORBIFLY MET'MAP TEAM :

Programmation & Développement : Alexandra Zaïnal
Sur une idée originale de : Baudouin d'Aumeries
Assistance à la programmation : Marc-Olivier Méhu
Soutien technique & logistique : Manuel Goepfert

Contact : metmap@orbifly.com




SOURCES & CREDITS :

   NOAA